createdAt,value
2018-12-09T00:02:18.007Z,2.53
2018-12-09T00:04:45.473Z,1.10
2018-12-09T00:07:12.981Z,2.93
2018-12-09T00:09:40.417Z,2.10
2018-12-09T00:12:07.860Z,1.47
2018-12-09T00:14:35.276Z,2.53
2018-12-09T00:17:02.705Z,1.17
2018-12-09T00:19:30.113Z,1.40
2018-12-09T00:21:57.509Z,0.90
2018-12-09T00:24:24.962Z,2.53
2018-12-09T00:26:52.457Z,2.10
2018-12-09T00:29:19.937Z,2.33
2018-12-09T00:31:47.338Z,1.23
2018-12-09T00:34:14.745Z,5.77
2018-12-09T00:36:42.787Z,3.07
2018-12-09T00:39:10.262Z,4.23
2018-12-09T00:41:37.677Z,4.07
2018-12-09T00:44:06.308Z,2.27
2018-12-09T00:46:33.766Z,6.23
2018-12-09T00:49:01.241Z,8.53
2018-12-09T00:51:29.014Z,8.20
2018-12-09T00:53:56.451Z,4.83
2018-12-09T00:56:23.905Z,7.17
2018-12-09T00:58:51.352Z,6.67
2018-12-09T01:01:18.813Z,8.33
2018-12-09T01:03:46.362Z,8.17
2018-12-09T01:06:13.810Z,7.40
2018-12-09T01:08:41.761Z,7.43
2018-12-09T01:11:09.189Z,12.23
2018-12-09T01:13:36.623Z,9.10
2018-12-09T01:16:04.093Z,8.27
2018-12-09T01:18:31.529Z,8.13
2018-12-09T01:20:58.981Z,5.03
2018-12-09T01:23:26.389Z,10.50
2018-12-09T01:25:53.897Z,11.27
2018-12-09T01:28:21.391Z,10.90
2018-12-09T01:30:48.870Z,5.27
2018-12-09T01:33:16.273Z,11.57
2018-12-09T01:35:43.749Z,6.80
2018-12-09T01:38:11.221Z,9.67
2018-12-09T01:40:44.349Z,10.30
2018-12-09T01:43:11.864Z,8.80
2018-12-09T01:45:39.308Z,10.80
2018-12-09T01:48:06.813Z,9.97
2018-12-09T01:50:34.390Z,12.07
2018-12-09T01:56:00.799Z,7.07
2018-12-09T01:58:28.425Z,11.60
2018-12-09T02:00:56.116Z,8.23
2018-12-09T02:03:24.945Z,10.03
2018-12-09T02:05:52.541Z,13.07
2018-12-09T02:08:20.236Z,11.00
2018-12-09T02:10:47.756Z,8.30
2018-12-09T02:13:15.313Z,9.53
2018-12-09T02:15:43.826Z,9.03
2018-12-09T02:18:11.356Z,7.00
2018-12-09T02:20:38.850Z,7.77
2018-12-09T02:23:06.333Z,8.30
2018-12-09T02:25:33.905Z,9.10
2018-12-09T02:28:01.390Z,5.53
2018-12-09T02:30:28.914Z,12.43
2018-12-09T02:32:56.510Z,11.07
2018-12-09T02:35:24.736Z,7.13
2018-12-09T02:37:52.222Z,6.73
2018-12-09T02:40:19.716Z,10.23
2018-12-09T02:42:50.135Z,6.83
2018-12-09T02:45:17.543Z,6.80
2018-12-09T02:47:45.061Z,6.60
2018-12-09T02:50:12.548Z,3.00
2018-12-09T02:52:40.082Z,2.77
2018-12-09T02:55:07.630Z,1.20
2018-12-09T02:57:35.108Z,3.70
2018-12-09T03:00:03.061Z,2.27
2018-12-09T03:02:30.553Z,2.10
2018-12-09T03:04:58.042Z,4.27
2018-12-09T03:07:25.630Z,5.67
2018-12-09T03:09:53.108Z,6.63
2018-12-09T03:12:20.593Z,4.10
2018-12-09T03:14:48.097Z,4.37
2018-12-09T03:17:15.662Z,3.93
2018-12-09T03:19:43.141Z,5.47
2018-12-09T03:22:13.585Z,4.63
2018-12-09T03:24:41.756Z,6.83
2018-12-09T03:27:09.183Z,6.27
2018-12-09T03:29:36.618Z,7.43
2018-12-09T03:32:04.145Z,8.87
2018-12-09T03:34:32.046Z,5.03
2018-12-09T03:36:59.541Z,4.63
2018-12-09T03:39:27.078Z,8.33
2018-12-09T03:41:59.524Z,6.63
2018-12-09T03:44:26.946Z,9.77
2018-12-09T03:46:55.594Z,9.53
2018-12-09T03:49:23.076Z,6.30
2018-12-09T03:51:54.898Z,3.70
2018-12-09T03:54:22.297Z,5.50
2018-12-09T03:56:49.814Z,3.00
2018-12-09T03:59:17.309Z,3.33
2018-12-09T04:01:44.821Z,3.20
2018-12-09T04:04:12.364Z,4.33
2018-12-09T04:06:39.850Z,3.17
2018-12-09T04:09:07.426Z,3.53
2018-12-09T04:11:34.929Z,8.57
2018-12-09T04:14:02.452Z,7.50
2018-12-09T04:16:30.070Z,5.43
2018-12-09T04:18:57.579Z,3.50
2018-12-09T04:21:25.070Z,6.27
2018-12-09T04:23:52.561Z,3.80
2018-12-09T04:26:20.140Z,3.60
2018-12-09T04:28:47.549Z,3.77
2018-12-09T04:31:15.162Z,5.60
2018-12-09T04:33:42.715Z,3.43
2018-12-09T04:36:10.211Z,4.40
2018-12-09T04:38:37.741Z,4.43
2018-12-09T04:41:05.295Z,3.03
2018-12-09T04:43:32.804Z,3.63
2018-12-09T04:46:00.310Z,2.10
2018-12-09T04:48:27.806Z,3.03
2018-12-09T04:50:55.288Z,1.77
2018-12-09T04:53:24.724Z,3.43
2018-12-09T04:55:52.294Z,2.17
2018-12-09T04:58:19.782Z,2.70
2018-12-09T05:00:55.221Z,1.90
2018-12-09T05:03:22.813Z,2.13
2018-12-09T05:05:50.319Z,2.00
2018-12-09T05:08:17.782Z,2.17
2018-12-09T05:10:45.324Z,1.27
2018-12-09T05:13:12.813Z,2.43
2018-12-09T05:15:40.281Z,1.43
2018-12-09T05:18:07.776Z,2.17
2018-12-09T05:20:35.303Z,3.50
2018-12-09T05:23:02.880Z,3.00
2018-12-09T05:25:30.478Z,2.47
2018-12-09T05:27:58.026Z,1.43
2018-12-09T05:30:25.538Z,4.43
2018-12-09T05:32:53.018Z,4.93
2018-12-09T05:35:20.818Z,4.47
2018-12-09T05:37:48.367Z,4.87
2018-12-09T05:40:15.839Z,2.00
2018-12-09T05:42:43.324Z,1.93
2018-12-09T05:45:10.826Z,0.80
2018-12-09T05:47:38.618Z,2.33
2018-12-09T05:50:06.202Z,3.80
2018-12-09T05:52:33.842Z,2.20
2018-12-09T05:55:01.315Z,3.90
2018-12-09T05:57:28.817Z,2.23
2018-12-09T05:59:57.157Z,1.70
2018-12-09T06:02:30.778Z,2.00
2018-12-09T06:04:58.268Z,0.80
2018-12-09T06:07:25.772Z,2.23
2018-12-09T06:09:53.302Z,3.83
2018-12-09T06:12:21.005Z,3.37
2018-12-09T06:14:48.620Z,2.93
2018-12-09T06:17:16.130Z,6.70
2018-12-09T06:19:43.669Z,2.20
2018-12-09T06:22:11.121Z,1.97
2018-12-09T06:24:39.001Z,6.03
2018-12-09T06:27:06.621Z,8.13
2018-12-09T06:29:34.109Z,6.23
2018-12-09T06:32:02.581Z,5.60
2018-12-09T06:34:30.018Z,4.30
2018-12-09T06:36:57.807Z,4.67
2018-12-09T06:39:25.312Z,5.43
2018-12-09T06:41:52.813Z,3.00
2018-12-09T06:44:21.333Z,5.93
2018-12-09T06:46:48.817Z,5.47
2018-12-09T06:49:16.605Z,4.33
2018-12-09T06:51:44.961Z,4.10
2018-12-09T06:54:12.365Z,4.37
2018-12-09T06:56:39.860Z,5.87
2018-12-09T06:59:07.333Z,4.20
2018-12-09T07:01:35.035Z,4.37
2018-12-09T07:04:02.436Z,3.87
2018-12-09T07:06:29.853Z,5.90
2018-12-09T07:08:57.321Z,5.03
2018-12-09T07:11:24.833Z,6.90
2018-12-09T07:13:52.316Z,5.20
2018-12-09T07:16:20.085Z,7.47
2018-12-09T07:18:47.525Z,6.87
2018-12-09T07:21:14.921Z,8.33
2018-12-09T07:23:42.401Z,6.47
2018-12-09T07:26:09.879Z,3.57
2018-12-09T07:28:37.349Z,5.50
2018-12-09T07:31:04.849Z,5.90
2018-12-09T07:33:32.326Z,4.70
2018-12-09T07:35:59.828Z,1.40
2018-12-09T07:38:27.341Z,7.80
2018-12-09T07:40:54.838Z,4.83
2018-12-09T07:43:22.311Z,5.03
2018-12-09T07:45:49.849Z,7.10
2018-12-09T07:48:17.353Z,13.83
2018-12-09T07:50:44.831Z,5.67
2018-12-09T07:53:12.345Z,7.53
2018-12-09T07:55:39.754Z,11.30
2018-12-09T07:58:07.173Z,7.13
2018-12-09T08:00:34.582Z,4.80
2018-12-09T08:03:02.054Z,3.77
2018-12-09T08:05:30.283Z,5.07
2018-12-09T08:07:57.673Z,8.67
2018-12-09T08:10:25.112Z,5.07
2018-12-09T08:12:52.522Z,6.67
2018-12-09T08:15:20.013Z,5.63
2018-12-09T08:17:47.418Z,7.37
2018-12-09T08:20:14.826Z,5.27
2018-12-09T08:22:42.230Z,8.47
2018-12-09T08:25:09.650Z,6.10
2018-12-09T08:27:37.049Z,5.77
2018-12-09T08:30:04.618Z,6.83
2018-12-09T08:32:32.117Z,5.17
2018-12-09T08:34:59.819Z,7.47
2018-12-09T08:37:27.197Z,5.67
2018-12-09T08:39:54.625Z,5.90
2018-12-09T08:42:22.041Z,7.60
2018-12-09T08:44:49.445Z,4.80
2018-12-09T08:47:16.861Z,5.37
2018-12-09T08:49:44.273Z,6.33
2018-12-09T08:52:13.658Z,5.20
2018-12-09T08:54:41.033Z,6.73
2018-12-09T08:57:08.476Z,6.57
2018-12-09T08:59:35.873Z,2.83
2018-12-09T09:02:03.330Z,4.70
2018-12-09T09:04:32.321Z,4.10
2018-12-09T09:06:59.937Z,8.33
2018-12-09T09:09:27.334Z,6.57
2018-12-09T09:11:54.748Z,6.77
2018-12-09T09:14:22.193Z,5.77
2018-12-09T09:16:49.673Z,12.03
2018-12-09T09:19:17.090Z,9.93
2018-12-09T09:21:44.595Z,6.10
2018-12-09T09:24:12.145Z,5.33
2018-12-09T09:26:39.562Z,7.87
2018-12-09T09:29:06.991Z,10.30
2018-12-09T09:31:34.537Z,3.70
2018-12-09T09:34:01.989Z,6.97
2018-12-09T09:36:29.730Z,6.30
2018-12-09T09:38:57.193Z,7.20
2018-12-09T09:41:24.706Z,6.97
2018-12-09T09:43:52.224Z,5.40
2018-12-09T09:46:19.697Z,3.73
2018-12-09T09:48:47.229Z,7.53
2018-12-09T09:51:15.857Z,4.50
2018-12-09T09:53:43.440Z,4.40
2018-12-09T09:56:11.047Z,3.67
2018-12-09T09:58:38.520Z,4.77
2018-12-09T10:01:06.049Z,4.70
2018-12-09T10:03:33.505Z,2.80
2018-12-09T10:06:00.928Z,1.87
2018-12-09T10:08:28.368Z,2.67
2018-12-09T10:10:55.885Z,3.13
2018-12-09T10:13:23.289Z,2.00
2018-12-09T10:15:50.721Z,0.57
2018-12-09T10:18:18.225Z,1.47
2018-12-09T10:20:45.630Z,2.27
2018-12-09T10:23:13.093Z,0.73
2018-12-09T10:25:40.587Z,1.27
2018-12-09T10:28:08.039Z,1.93
2018-12-09T10:30:35.454Z,2.27
2018-12-09T10:33:02.953Z,1.53
2018-12-09T10:35:30.362Z,1.50
2018-12-09T10:37:57.794Z,1.53
2018-12-09T10:40:25.211Z,0.63
2018-12-09T10:42:52.600Z,1.87
2018-12-09T10:45:20.005Z,1.67
2018-12-09T10:47:47.409Z,2.57
2018-12-09T10:50:14.890Z,0.93
2018-12-09T10:52:42.368Z,0.50
2018-12-09T10:55:09.800Z,2.37
2018-12-09T10:57:37.197Z,1.53
2018-12-09T11:00:04.759Z,0.47
2018-12-09T11:02:32.185Z,0.70
2018-12-09T11:04:59.584Z,0.30
2018-12-09T11:07:27.050Z,3.43
2018-12-09T11:09:54.457Z,1.33
2018-12-09T11:12:21.867Z,0.40
2018-12-09T11:14:49.346Z,1.73
2018-12-09T11:17:16.749Z,4.27
2018-12-09T11:19:44.149Z,0.77
2018-12-09T11:22:11.549Z,2.13
2018-12-09T11:24:39.667Z,0.80
2018-12-09T11:27:07.115Z,1.23
2018-12-09T11:29:34.606Z,1.23
2018-12-09T11:32:02.017Z,2.73
2018-12-09T11:34:29.481Z,1.03
2018-12-09T11:36:56.901Z,1.27
2018-12-09T11:39:24.309Z,0.27
2018-12-09T11:41:51.856Z,1.07
2018-12-09T11:44:19.361Z,1.40
2018-12-09T11:46:46.757Z,2.13
2018-12-09T11:49:14.160Z,3.57
2018-12-09T11:51:41.785Z,3.00
2018-12-09T11:54:09.257Z,2.80
2018-12-09T11:56:36.766Z,2.97
2018-12-09T11:59:04.251Z,2.37
2018-12-09T12:01:31.762Z,1.40
2018-12-09T12:03:59.160Z,4.57
2018-12-09T12:06:26.565Z,2.27
2018-12-09T12:08:53.991Z,2.47
2018-12-09T12:11:21.475Z,3.37
2018-12-09T12:13:48.925Z,2.07
2018-12-09T12:16:16.329Z,3.83
2018-12-09T12:18:43.735Z,0.80
2018-12-09T12:21:11.206Z,2.87
2018-12-09T12:23:38.713Z,2.07
2018-12-09T12:26:06.249Z,4.23
2018-12-09T12:28:33.674Z,2.20
2018-12-09T12:31:01.154Z,2.10
2018-12-09T12:33:28.713Z,1.83
2018-12-09T12:35:56.123Z,3.50
2018-12-09T12:38:23.698Z,1.23
2018-12-09T12:40:51.113Z,1.43
2018-12-09T12:43:18.545Z,2.17
2018-12-09T12:45:45.975Z,2.53
2018-12-09T12:48:13.794Z,1.80
2018-12-09T12:50:41.233Z,0.90
2018-12-09T12:53:08.661Z,1.20
2018-12-09T12:55:36.165Z,2.63
2018-12-09T12:58:03.575Z,2.03
2018-12-09T13:00:30.985Z,2.40
2018-12-09T13:02:58.429Z,2.33
2018-12-09T13:05:25.849Z,1.97
2018-12-09T13:07:53.321Z,4.40
2018-12-09T13:10:22.481Z,3.07
2018-12-09T13:12:49.941Z,2.37
2018-12-09T13:15:17.377Z,3.13
2018-12-09T13:17:44.833Z,1.23
2018-12-09T13:20:12.233Z,2.50
2018-12-09T13:22:39.646Z,3.53
2018-12-09T13:25:07.153Z,3.40
2018-12-09T13:27:34.617Z,4.23
2018-12-09T13:30:02.082Z,5.57
2018-12-09T13:32:29.582Z,0.67
2018-12-09T13:34:57.077Z,6.20
2018-12-09T13:37:24.481Z,0.60
2018-12-09T13:39:51.994Z,0.70
2018-12-09T13:42:19.480Z,1.53
2018-12-09T13:44:46.882Z,0.17
2018-12-09T13:47:14.301Z,0.73
2018-12-09T13:49:41.744Z,0.60
2018-12-09T13:52:09.159Z,0.63
2018-12-09T13:54:36.632Z,0.43
2018-12-09T13:57:06.539Z,1.10
2018-12-09T13:59:34.022Z,0.30
2018-12-09T14:02:01.525Z,0.90
2018-12-09T14:04:28.973Z,1.27
2018-12-09T14:06:56.378Z,0.43
2018-12-09T14:09:23.768Z,0.33
2018-12-09T14:11:51.244Z,1.03
2018-12-09T14:14:18.641Z,0.60
2018-12-09T14:16:46.118Z,3.27
2018-12-09T14:19:13.536Z,1.17
2018-12-09T14:21:41.034Z,1.80
2018-12-09T14:24:08.543Z,1.60
2018-12-09T14:26:35.967Z,1.03
2018-12-09T14:29:03.503Z,0.30
2018-12-09T14:31:31.740Z,0.87
2018-12-09T14:33:59.227Z,0.83
2018-12-09T14:36:26.674Z,1.43
2018-12-09T14:38:54.139Z,1.97
2018-12-09T14:41:21.629Z,1.40
2018-12-09T14:43:49.050Z,1.67
2018-12-09T14:46:16.464Z,1.33
2018-12-09T14:48:44.104Z,0.87
2018-12-09T14:51:11.600Z,1.73
2018-12-09T14:53:39.021Z,1.50
2018-12-09T14:56:06.486Z,1.57
2018-12-09T14:58:33.945Z,1.67
2018-12-09T15:01:01.363Z,1.30
2018-12-09T15:03:28.808Z,1.63
2018-12-09T15:05:56.266Z,1.47
2018-12-09T15:08:23.677Z,1.73
2018-12-09T15:10:51.537Z,2.10
2018-12-09T15:13:18.973Z,2.20
2018-12-09T15:15:46.409Z,1.07
2018-12-09T15:18:13.865Z,0.80
2018-12-09T15:20:42.196Z,1.40
2018-12-09T15:23:09.633Z,2.30
2018-12-09T15:25:37.208Z,0.93
2018-12-09T15:28:04.713Z,2.73
2018-12-09T15:30:32.197Z,0.77
2018-12-09T15:32:59.605Z,2.10
2018-12-09T15:35:27.009Z,3.20
2018-12-09T15:37:54.433Z,1.57
2018-12-09T15:40:21.826Z,1.20
2018-12-09T15:42:49.221Z,1.03
2018-12-09T15:45:16.708Z,1.27
2018-12-09T15:47:44.124Z,1.07
2018-12-09T15:50:11.613Z,1.40
2018-12-09T15:52:39.096Z,2.03
2018-12-09T15:55:06.548Z,0.60
2018-12-09T15:57:34.100Z,0.83
2018-12-09T16:00:01.624Z,0.70
2018-12-09T16:02:29.113Z,1.27
2018-12-09T16:04:57.373Z,2.03
2018-12-09T16:07:24.925Z,1.03
2018-12-09T16:09:52.355Z,1.30
2018-12-09T16:12:19.835Z,0.20
2018-12-09T16:14:47.332Z,0.77
2018-12-09T16:17:14.766Z,1.83
2018-12-09T16:19:42.673Z,0.97
2018-12-09T16:22:10.225Z,0.83
2018-12-09T16:24:37.627Z,2.57
2018-12-09T16:27:05.164Z,1.97
2018-12-09T16:29:33.819Z,1.00
2018-12-09T16:32:01.266Z,0.40
2018-12-09T16:34:28.678Z,1.07
2018-12-09T16:36:56.089Z,1.90
2018-12-09T16:39:23.523Z,0.40
2018-12-09T16:41:51.002Z,2.83
2018-12-09T16:44:18.414Z,3.13
2018-12-09T16:46:45.917Z,2.00
2018-12-09T16:49:13.327Z,1.57
2018-12-09T16:51:43.110Z,3.87
2018-12-09T16:54:10.550Z,1.47
2018-12-09T16:56:37.966Z,2.03
2018-12-09T16:59:05.369Z,1.20
2018-12-09T17:01:32.810Z,1.43
2018-12-09T17:04:00.216Z,4.50
2018-12-09T17:06:27.649Z,2.50
2018-12-09T17:08:55.057Z,3.23
2018-12-09T17:11:22.513Z,4.40
2018-12-09T17:13:49.921Z,2.80
2018-12-09T17:16:17.349Z,1.40
2018-12-09T17:18:44.805Z,2.80
2018-12-09T17:21:12.265Z,3.27
2018-12-09T17:23:40.837Z,2.63
2018-12-09T17:26:08.399Z,1.67
2018-12-09T17:28:35.812Z,2.47
2018-12-09T17:31:03.342Z,4.23
2018-12-09T17:33:30.806Z,3.03
2018-12-09T17:35:58.277Z,1.83
2018-12-09T17:38:25.689Z,4.77
2018-12-09T17:40:53.133Z,3.37
2018-12-09T17:43:20.545Z,3.03
2018-12-09T17:45:48.066Z,3.77
2018-12-09T17:48:15.477Z,3.57
2018-12-09T17:50:42.916Z,5.30
2018-12-09T17:53:10.412Z,3.53
2018-12-09T17:55:37.827Z,1.40
2018-12-09T17:58:05.334Z,3.63
2018-12-09T18:00:32.766Z,2.60
2018-12-09T18:03:00.171Z,4.93
2018-12-09T18:05:27.625Z,5.97
2018-12-09T18:07:55.055Z,3.70
2018-12-09T18:10:22.599Z,5.70
2018-12-09T18:12:50.075Z,2.53
2018-12-09T18:15:18.091Z,2.50
2018-12-09T18:17:45.513Z,3.47
2018-12-09T18:20:12.921Z,2.00
2018-12-09T18:22:40.370Z,5.07
2018-12-09T18:25:07.902Z,3.07
2018-12-09T18:27:35.323Z,1.73
2018-12-09T18:30:02.817Z,5.17
2018-12-09T18:32:30.261Z,2.03
2018-12-09T18:34:57.725Z,2.70
2018-12-09T18:37:25.157Z,2.77
2018-12-09T18:39:52.791Z,4.03
2018-12-09T18:42:21.387Z,3.53
2018-12-09T18:44:48.933Z,4.40
2018-12-09T18:47:16.372Z,3.60
2018-12-09T18:49:43.919Z,3.97
2018-12-09T18:52:11.293Z,4.67
2018-12-09T18:54:39.267Z,4.90
2018-12-09T18:57:06.709Z,7.77
2018-12-09T18:59:35.029Z,6.93
2018-12-09T19:02:03.629Z,2.57
2018-12-09T19:07:17.685Z,5.80
2018-12-09T19:09:45.170Z,4.57
2018-12-09T19:12:12.692Z,3.53
2018-12-09T19:14:40.412Z,7.97
2018-12-09T19:17:07.918Z,6.90
2018-12-09T19:19:35.378Z,4.57
2018-12-09T19:22:02.840Z,4.43
2018-12-09T19:24:30.323Z,6.93
2018-12-09T19:26:57.717Z,9.23
2018-12-09T19:29:25.133Z,11.83
2018-12-09T19:31:52.593Z,6.80
2018-12-09T19:34:20.006Z,6.43
2018-12-09T19:36:47.409Z,6.73
2018-12-09T19:39:14.910Z,5.73
2018-12-09T19:41:42.306Z,4.80
2018-12-09T19:44:09.764Z,12.50
2018-12-09T19:46:37.182Z,17.13
2018-12-09T19:49:04.705Z,8.10
2018-12-09T19:51:33.359Z,5.87
2018-12-09T19:54:00.842Z,6.57
2018-12-09T19:56:29.368Z,5.17
2018-12-09T19:58:56.821Z,4.80
2018-12-09T20:01:24.254Z,5.17
2018-12-09T20:03:51.750Z,3.13
2018-12-09T20:06:19.213Z,5.50
2018-12-09T20:08:46.677Z,8.90
2018-12-09T20:11:14.109Z,6.87
2018-12-09T20:13:41.574Z,5.17
2018-12-09T20:16:09.001Z,4.77
2018-12-09T20:18:36.442Z,4.97
2018-12-09T20:21:03.866Z,5.23
2018-12-09T20:23:31.373Z,5.60
2018-12-09T20:25:58.789Z,3.80
2018-12-09T20:28:26.191Z,3.17
2018-12-09T20:30:53.626Z,3.20
2018-12-09T20:33:21.045Z,6.47
2018-12-09T20:35:48.456Z,5.40
2018-12-09T20:38:15.901Z,5.77
2018-12-09T20:40:43.315Z,3.93
2018-12-09T20:43:10.713Z,4.90
2018-12-09T20:45:38.193Z,3.13
2018-12-09T20:48:13.189Z,5.47
2018-12-09T20:50:35.037Z,6.47
2018-12-09T20:53:02.445Z,4.80
2018-12-09T20:55:31.010Z,8.70
2018-12-09T20:57:58.584Z,9.43
2018-12-09T21:00:26.037Z,4.43
2018-12-09T21:02:53.534Z,7.43
2018-12-09T21:05:21.044Z,4.63
2018-12-09T21:07:48.449Z,5.80
2018-12-09T21:10:15.934Z,9.77
2018-12-09T21:12:43.413Z,6.00
2018-12-09T21:15:10.865Z,5.77
2018-12-09T21:17:38.281Z,9.40
2018-12-09T21:20:05.750Z,9.90
2018-12-09T21:22:33.201Z,7.03
2018-12-09T21:25:00.624Z,10.23
2018-12-09T21:27:28.040Z,4.20
2018-12-09T21:29:55.557Z,8.47
2018-12-09T21:32:22.978Z,7.07
2018-12-09T21:34:50.473Z,8.23
2018-12-09T21:37:17.925Z,7.57
2018-12-09T21:39:45.341Z,7.80
2018-12-09T21:42:12.826Z,4.13
2018-12-09T21:44:40.349Z,4.63
2018-12-09T21:47:07.757Z,6.23
2018-12-09T21:49:35.171Z,5.80
2018-12-09T21:52:02.612Z,10.97
2018-12-09T21:54:30.073Z,9.23
2018-12-09T21:56:57.613Z,6.60
2018-12-09T21:59:25.037Z,7.93
2018-12-09T22:01:52.493Z,7.47
2018-12-09T22:04:19.957Z,9.17
2018-12-09T22:06:47.366Z,10.30
2018-12-09T22:09:14.779Z,10.57
2018-12-09T22:11:42.253Z,5.63
2018-12-09T22:14:09.664Z,6.07
2018-12-09T22:16:37.090Z,11.00
2018-12-09T22:19:04.501Z,8.23
2018-12-09T22:21:31.905Z,6.33
2018-12-09T22:23:59.385Z,9.13
2018-12-09T22:26:26.813Z,8.60
2018-12-09T22:28:54.219Z,11.00
2018-12-09T22:31:21.841Z,10.43
2018-12-09T22:33:49.650Z,7.80
2018-12-09T22:36:17.049Z,15.53
2018-12-09T22:38:44.465Z,7.40
2018-12-09T22:41:11.918Z,9.27
2018-12-09T22:43:39.340Z,10.40
2018-12-09T22:46:07.037Z,10.90
2018-12-09T22:48:34.635Z,11.80
2018-12-09T22:51:02.049Z,5.63
2018-12-09T22:53:29.537Z,9.97
2018-12-09T22:55:56.937Z,9.17
2018-12-09T22:58:24.358Z,12.50
2018-12-09T23:00:57.780Z,8.03
2018-12-09T23:03:25.274Z,8.90
2018-12-09T23:05:53.184Z,10.93
2018-12-09T23:08:20.598Z,9.47
2018-12-09T23:10:47.999Z,7.60
2018-12-09T23:13:15.397Z,8.27
2018-12-09T23:15:42.822Z,9.10
2018-12-09T23:18:10.231Z,15.63
2018-12-09T23:20:37.719Z,8.17
2018-12-09T23:23:05.161Z,7.57
2018-12-09T23:25:32.580Z,10.70
2018-12-09T23:27:59.981Z,9.23
2018-12-09T23:30:27.478Z,9.47
2018-12-09T23:32:54.889Z,13.00
2018-12-09T23:35:22.306Z,14.33
2018-12-09T23:37:49.717Z,10.33
2018-12-09T23:40:17.128Z,19.00
2018-12-09T23:42:44.534Z,17.23
2018-12-09T23:45:11.977Z,12.53
2018-12-09T23:47:39.404Z,10.90
2018-12-09T23:50:06.925Z,11.43
2018-12-09T23:52:34.415Z,10.20
2018-12-09T23:55:01.825Z,8.67
2018-12-09T23:57:29.226Z,8.07
2018-12-09T23:59:56.634Z,8.23
